sensor_id;sensor_type;location;lat;lon;timestamp;pressure;altitude;pressure_sealevel;temperature;humidity
77263;BME280;66373;52.334;4.806;2023-05-29T00:01:54;102437.88;;;22.10;42.69
77263;BME280;66373;52.334;4.806;2023-05-29T00:04:21;102437.88;;;22.10;42.98
77263;BME280;66373;52.334;4.806;2023-05-29T00:06:48;102424.88;;;22.06;42.82
77263;BME280;66373;52.334;4.806;2023-05-29T00:09:16;102393.75;;;21.78;42.88
77263;BME280;66373;52.334;4.806;2023-05-29T00:11:43;102391.13;;;21.78;42.76
77263;BME280;66373;52.334;4.806;2023-05-29T00:14:12;102436.28;;;22.02;42.33
77263;BME280;66373;52.334;4.806;2023-05-29T00:16:42;102444.09;;;22.05;42.49
77263;BME280;66373;52.334;4.806;2023-05-29T00:19:09;102444.13;;;22.03;42.51
77263;BME280;66373;52.334;4.806;2023-05-29T00:21:36;102429.34;;;21.93;42.58
77263;BME280;66373;52.334;4.806;2023-05-29T00:24:04;102419.03;;;21.82;42.59
77263;BME280;66373;52.334;4.806;2023-05-29T00:26:31;102455.50;;;22.00;42.66
77263;BME280;66373;52.334;4.806;2023-05-29T00:28:58;102456.34;;;21.99;42.47
77263;BME280;66373;52.334;4.806;2023-05-29T00:31:25;102450.34;;;21.91;42.34
77263;BME280;66373;52.334;4.806;2023-05-29T00:33:55;102444.19;;;21.94;42.44
77263;BME280;66373;52.334;4.806;2023-05-29T00:36:23;102431.31;;;21.77;42.57
77263;BME280;66373;52.334;4.806;2023-05-29T00:38:50;102440.78;;;21.86;42.57
77263;BME280;66373;52.334;4.806;2023-05-29T00:41:21;102365.31;;;21.45;42.63
77263;BME280;66373;52.334;4.806;2023-05-29T00:43:48;102453.81;;;21.93;42.58
77263;BME280;66373;52.334;4.806;2023-05-29T00:46:15;102443.34;;;21.90;42.52
77263;BME280;66373;52.334;4.806;2023-05-29T00:48:43;102455.56;;;21.91;42.49
77263;BME280;66373;52.334;4.806;2023-05-29T00:51:12;102455.59;;;21.88;42.12
77263;BME280;66373;52.334;4.806;2023-05-29T00:53:42;102474.78;;;21.90;42.27
77263;BME280;66373;52.334;4.806;2023-05-29T00:56:11;102395.88;;;21.46;42.49
77263;BME280;66373;52.334;4.806;2023-05-29T00:58:39;102475.69;;;21.89;42.53
77263;BME280;66373;52.334;4.806;2023-05-29T01:01:08;102475.69;;;21.88;42.64
77263;BME280;66373;52.334;4.806;2023-05-29T01:03:36;102469.59;;;21.86;42.31
77263;BME280;66373;52.334;4.806;2023-05-29T01:06:03;102447.97;;;21.70;42.23
77263;BME280;66373;52.334;4.806;2023-05-29T01:08:32;102473.09;;;21.85;42.17
77263;BME280;66373;52.334;4.806;2023-05-29T01:11:04;102475.75;;;21.83;42.48
77263;BME280;66373;52.334;4.806;2023-05-29T01:13:37;102424.59;;;21.52;42.47
77263;BME280;66373;52.334;4.806;2023-05-29T01:16:12;102478.44;;;21.80;42.09
77263;BME280;66373;52.334;4.806;2023-05-29T01:18:45;102473.19;;;21.80;42.15
77263;BME280;66373;52.334;4.806;2023-05-29T01:21:23;102465.41;;;21.73;42.19
77263;BME280;66373;52.334;4.806;2023-05-29T01:24:02;102463.66;;;21.72;42.28
77263;BME280;66373;52.334;4.806;2023-05-29T01:26:53;102480.25;;;21.72;42.26
77263;BME280;66373;52.334;4.806;2023-05-29T01:29:22;102488.06;;;21.75;42.22
77263;BME280;66373;52.334;4.806;2023-05-29T01:31:50;102486.34;;;21.73;42.17
77263;BME280;66373;52.334;4.806;2023-05-29T01:34:18;102492.47;;;21.73;42.03
77263;BME280;66373;52.334;4.806;2023-05-29T01:36:45;102482.94;;;21.66;41.83
77263;BME280;66373;52.334;4.806;2023-05-29T01:39:13;102494.22;;;21.71;42.04
77263;BME280;66373;52.334;4.806;2023-05-29T01:41:41;102495.97;;;21.71;42.18
77263;BME280;66373;52.334;4.806;2023-05-29T01:44:12;102502.97;;;21.70;42.34
77263;BME280;66373;52.334;4.806;2023-05-29T01:46:40;102500.34;;;21.68;42.25
77263;BME280;66373;52.334;4.806;2023-05-29T01:49:08;102491.69;;;21.63;42.13
77263;BME280;66373;52.334;4.806;2023-05-29T01:51:35;102503.00;;;21.67;42.29
77263;BME280;66373;52.334;4.806;2023-05-29T01:54:03;102496.06;;;21.60;42.02
77263;BME280;66373;52.334;4.806;2023-05-29T01:56:31;102505.63;;;21.64;42.27
77263;BME280;66373;52.334;4.806;2023-05-29T01:58:59;102511.78;;;21.60;42.39
77263;BME280;66373;52.334;4.806;2023-05-29T02:01:29;102517.88;;;21.60;42.41
77263;BME280;66373;52.334;4.806;2023-05-29T02:03:58;102494.47;;;21.47;42.22
77263;BME280;66373;52.334;4.806;2023-05-29T02:06:25;102516.22;;;21.56;42.13
77263;BME280;66373;52.334;4.806;2023-05-29T02:08:52;102509.19;;;21.58;42.26
77263;BME280;66373;52.334;4.806;2023-05-29T02:11:19;102510.03;;;21.59;41.90
77263;BME280;66373;52.334;4.806;2023-05-29T02:13:47;102502.19;;;21.57;42.04
77263;BME280;66373;52.334;4.806;2023-05-29T02:16:15;102510.97;;;21.56;42.17
77263;BME280;66373;52.334;4.806;2023-05-29T02:18:44;102497.91;;;21.52;42.15
77263;BME280;66373;52.334;4.806;2023-05-29T02:21:12;102493.56;;;21.49;41.99
77263;BME280;66373;52.334;4.806;2023-05-29T02:23:40;102496.16;;;21.54;42.15
77263;BME280;66373;52.334;4.806;2023-05-29T02:26:07;102499.66;;;21.53;41.94
77263;BME280;66373;52.334;4.806;2023-05-29T02:28:34;102492.69;;;21.50;42.46
77263;BME280;66373;52.334;4.806;2023-05-29T02:31:02;102497.06;;;21.51;42.10
77263;BME280;66373;52.334;4.806;2023-05-29T02:33:29;102497.94;;;21.49;42.31
77263;BME280;66373;52.334;4.806;2023-05-29T02:35:57;102506.69;;;21.48;42.11
77263;BME280;66373;52.334;4.806;2023-05-29T02:38:24;102506.72;;;21.45;42.07
77263;BME280;66373;52.334;4.806;2023-05-29T02:40:52;102510.19;;;21.47;41.80
77263;BME280;66373;52.334;4.806;2023-05-29T02:43:21;102498.84;;;21.43;42.16
77263;BME280;66373;52.334;4.806;2023-05-29T02:45:49;102502.34;;;21.44;41.99
77263;BME280;66373;52.334;4.806;2023-05-29T02:48:16;102503.25;;;21.40;42.05
77263;BME280;66373;52.334;4.806;2023-05-29T02:50:43;102508.47;;;21.44;42.08
77263;BME280;66373;52.334;4.806;2023-05-29T02:53:11;102507.59;;;21.42;42.41
77263;BME280;66373;52.334;4.806;2023-05-29T02:55:44;102505.00;;;21.41;42.04
77263;BME280;66373;52.334;4.806;2023-05-29T02:58:12;102506.75;;;21.37;42.10
77263;BME280;66373;52.334;4.806;2023-05-29T03:00:41;102507.63;;;21.39;42.01
77263;BME280;66373;52.334;4.806;2023-05-29T03:03:09;102509.38;;;21.39;42.09
77263;BME280;66373;52.334;4.806;2023-05-29T03:05:38;102499.78;;;21.38;42.00
77263;BME280;66373;52.334;4.806;2023-05-29T03:08:05;102466.78;;;21.18;42.10
77263;BME280;66373;52.334;4.806;2023-05-29T03:10:34;102490.28;;;21.27;42.18
77263;BME280;66373;52.334;4.806;2023-05-29T03:13:01;102499.81;;;21.31;41.84
77263;BME280;66373;52.334;4.806;2023-05-29T03:15:29;102498.94;;;21.31;42.24
77263;BME280;66373;52.334;4.806;2023-05-29T03:17:56;102495.47;;;21.32;41.84
77263;BME280;66373;52.334;4.806;2023-05-29T03:20:27;102489.34;;;21.31;42.13
77263;BME280;66373;52.334;4.806;2023-05-29T03:22:56;102491.19;;;21.23;42.05
77263;BME280;66373;52.334;4.806;2023-05-29T03:25:23;102478.09;;;21.19;42.04
77263;BME280;66373;52.334;4.806;2023-05-29T03:27:52;102491.19;;;21.22;42.06
77263;BME280;66373;52.334;4.806;2023-05-29T03:30:20;102504.25;;;21.28;41.88
77263;BME280;66373;52.334;4.806;2023-05-29T03:32:48;102472.94;;;21.11;42.08
77263;BME280;66373;52.334;4.806;2023-05-29T03:35:16;102502.50;;;21.25;42.11
77263;BME280;66373;52.334;4.806;2023-05-29T03:37:43;102509.50;;;21.25;41.97
77263;BME280;66373;52.334;4.806;2023-05-29T03:40:12;102503.41;;;21.24;41.73
77263;BME280;66373;52.334;4.806;2023-05-29T03:42:39;102509.50;;;21.23;41.59
77263;BME280;66373;52.334;4.806;2023-05-29T03:45:09;102509.53;;;21.22;41.81
77263;BME280;66373;52.334;4.806;2023-05-29T03:47:39;102452.19;;;20.88;41.94
77263;BME280;66373;52.334;4.806;2023-05-29T03:50:17;102488.66;;;21.07;41.88
77263;BME280;66373;52.334;4.806;2023-05-29T03:52:45;102499.06;;;21.14;41.72
77263;BME280;66373;52.334;4.806;2023-05-29T03:55:12;102496.47;;;21.11;41.90
77263;BME280;66373;52.334;4.806;2023-05-29T03:57:40;102499.94;;;21.16;42.34
77263;BME280;66373;52.334;4.806;2023-05-29T04:00:10;102513.91;;;21.15;42.07
77263;BME280;66373;52.334;4.806;2023-05-29T04:02:45;102513.91;;;21.15;42.28
77263;BME280;66373;52.334;4.806;2023-05-29T04:05:12;102515.66;;;21.15;42.02
77263;BME280;66373;52.334;4.806;2023-05-29T04:07:42;102517.38;;;21.14;42.21
77263;BME280;66373;52.334;4.806;2023-05-29T04:10:09;102532.22;;;21.14;41.92
77263;BME280;66373;52.334;4.806;2023-05-29T04:12:36;102515.66;;;21.12;42.11
77263;BME280;66373;52.334;4.806;2023-05-29T04:15:05;102498.34;;;20.97;41.90
77263;BME280;66373;52.334;4.806;2023-05-29T04:17:34;102526.13;;;21.10;42.01
77263;BME280;66373;52.334;4.806;2023-05-29T04:20:01;102521.78;;;21.09;41.83
77263;BME280;66373;52.334;4.806;2023-05-29T04:22:34;102528.75;;;21.09;41.99
77263;BME280;66373;52.334;4.806;2023-05-29T04:25:01;102527.06;;;21.05;42.04
77263;BME280;66373;52.334;4.806;2023-05-29T04:27:29;102535.75;;;21.05;41.85
77263;BME280;66373;52.334;4.806;2023-05-29T04:29:58;102525.38;;;20.99;42.17
77263;BME280;66373;52.334;4.806;2023-05-29T04:32:30;102538.44;;;21.02;41.74
77263;BME280;66373;52.334;4.806;2023-05-29T04:35:00;102548.00;;;21.05;41.82
77263;BME280;66373;52.334;4.806;2023-05-29T04:37:30;102547.13;;;21.04;42.28
77263;BME280;66373;52.334;4.806;2023-05-29T04:40:05;102551.50;;;21.04;41.96
77263;BME280;66373;52.334;4.806;2023-05-29T04:42:35;102528.03;;;20.87;42.42
77263;BME280;66373;52.334;4.806;2023-05-29T04:45:02;102554.13;;;21.02;41.97
77263;BME280;66373;52.334;4.806;2023-05-29T04:47:34;102548.91;;;21.02;41.97
77263;BME280;66373;52.334;4.806;2023-05-29T04:50:04;102561.09;;;21.02;42.21
77263;BME280;66373;52.334;4.806;2023-05-29T04:52:32;102566.34;;;21.00;42.29
77263;BME280;66373;52.334;4.806;2023-05-29T04:54:59;102566.34;;;21.00;42.03
77263;BME280;66373;52.334;4.806;2023-05-29T04:57:27;102568.09;;;20.99;42.27
77263;BME280;66373;52.334;4.806;2023-05-29T04:59:54;102569.84;;;20.99;42.06
77263;BME280;66373;52.334;4.806;2023-05-29T05:02:21;102571.59;;;20.97;42.40
77263;BME280;66373;52.334;4.806;2023-05-29T05:04:49;102567.25;;;20.96;42.03
77263;BME280;66373;52.334;4.806;2023-05-29T05:07:18;102566.38;;;20.95;41.99
77263;BME280;66373;52.334;4.806;2023-05-29T05:09:46;102564.63;;;20.96;42.06
77263;BME280;66373;52.334;4.806;2023-05-29T05:12:19;102567.25;;;20.96;42.07
77263;BME280;66373;52.334;4.806;2023-05-29T05:14:47;102557.66;;;20.95;42.30
77263;BME280;66373;52.334;4.806;2023-05-29T05:17:14;102569.88;;;20.93;42.04
77263;BME280;66373;52.334;4.806;2023-05-29T05:19:41;102564.63;;;20.94;42.19
77263;BME280;66373;52.334;4.806;2023-05-29T05:22:09;102544.63;;;20.80;42.35
77263;BME280;66373;52.334;4.806;2023-05-29T05:24:38;102565.50;;;20.92;41.96
77263;BME280;66373;52.334;4.806;2023-05-29T05:27:05;102559.41;;;20.90;42.19
77263;BME280;66373;52.334;4.806;2023-05-29T05:29:34;102568.13;;;20.92;42.54
77263;BME280;66373;52.334;4.806;2023-05-29T05:32:01;102567.25;;;20.91;42.17
77263;BME280;66373;52.334;4.806;2023-05-29T05:34:28;102566.38;;;20.91;42.38
77263;BME280;66373;52.334;4.806;2023-05-29T05:36:55;102569.00;;;20.92;42.06
77263;BME280;66373;52.334;4.806;2023-05-29T05:39:23;102547.28;;;20.78;42.46
77263;BME280;66373;52.334;4.806;2023-05-29T05:41:52;102565.50;;;20.92;42.20
77263;BME280;66373;52.334;4.806;2023-05-29T05:44:39;102573.38;;;20.92;42.58
77263;BME280;66373;52.334;4.806;2023-05-29T05:47:10;102567.25;;;20.91;42.46
77263;BME280;66373;52.334;4.806;2023-05-29T05:49:38;102527.31;;;20.63;42.15
77263;BME280;66373;52.334;4.806;2023-05-29T05:52:06;102573.38;;;20.92;42.44
77263;BME280;66373;52.334;4.806;2023-05-29T05:54:34;102573.38;;;20.92;42.11
77263;BME280;66373;52.334;4.806;2023-05-29T05:57:03;102542.94;;;20.76;42.63
77263;BME280;66373;52.334;4.806;2023-05-29T05:59:31;102575.09;;;20.93;42.23
77263;BME280;66373;52.334;4.806;2023-05-29T06:01:59;102569.00;;;20.92;42.55
77263;BME280;66373;52.334;4.806;2023-05-29T06:04:26;102582.06;;;20.94;42.72
77263;BME280;66373;52.334;4.806;2023-05-29T06:06:54;102582.09;;;20.91;42.36
77263;BME280;66373;52.334;4.806;2023-05-29T06:09:22;102589.91;;;20.94;42.51
77263;BME280;66373;52.334;4.806;2023-05-29T06:11:49;102579.47;;;20.89;42.32
77263;BME280;66373;52.334;4.806;2023-05-29T06:14:17;102587.31;;;20.94;42.30
77263;BME280;66373;52.334;4.806;2023-05-29T06:16:45;102582.94;;;20.94;42.71
77263;BME280;66373;52.334;4.806;2023-05-29T06:19:13;102576.84;;;20.91;42.56
77263;BME280;66373;52.334;4.806;2023-05-29T06:21:53;102591.66;;;20.95;42.60
77263;BME280;66373;52.334;4.806;2023-05-29T06:24:20;102585.56;;;20.90;42.15
77263;BME280;66373;52.334;4.806;2023-05-29T06:26:47;102575.13;;;20.84;42.33
77263;BME280;66373;52.334;4.806;2023-05-29T06:29:17;102572.53;;;20.84;42.06
77263;BME280;66373;52.334;4.806;2023-05-29T06:31:44;102596.00;;;20.96;42.33
77263;BME280;66373;52.334;4.806;2023-05-29T06:34:14;102603.00;;;20.97;42.46
77263;BME280;66373;52.334;4.806;2023-05-29T06:36:42;102603.00;;;20.97;42.43
77263;BME280;66373;52.334;4.806;2023-05-29T06:39:09;102587.31;;;20.91;42.28
77263;BME280;66373;52.334;4.806;2023-05-29T06:41:37;102599.50;;;20.98;42.24
77263;BME280;66373;52.334;4.806;2023-05-29T06:44:05;102596.00;;;20.99;42.00
77263;BME280;66373;52.334;4.806;2023-05-29T06:46:34;102584.72;;;20.89;41.90
77263;BME280;66373;52.334;4.806;2023-05-29T06:49:01;102549.94;;;20.75;41.99
77263;BME280;66373;52.334;4.806;2023-05-29T06:51:28;102603.84;;;21.00;42.03
77263;BME280;66373;52.334;4.806;2023-05-29T06:53:56;102580.34;;;20.90;42.37
77263;BME280;66373;52.334;4.806;2023-05-29T06:56:26;102592.53;;;20.94;42.07
77263;BME280;66373;52.334;4.806;2023-05-29T06:58:57;102596.00;;;20.99;41.97
77263;BME280;66373;52.334;4.806;2023-05-29T07:01:24;102608.19;;;21.03;41.86
77263;BME280;66373;52.334;4.806;2023-05-29T07:03:59;102593.44;;;20.90;41.86
77263;BME280;66373;52.334;4.806;2023-05-29T07:06:28;102620.41;;;21.04;41.90
77263;BME280;66373;52.334;4.806;2023-05-29T07:08:55;102613.38;;;21.06;41.75
77263;BME280;66373;52.334;4.806;2023-05-29T07:11:23;102619.50;;;21.05;41.84
77263;BME280;66373;52.334;4.806;2023-05-29T07:13:51;102613.44;;;21.03;42.11
77263;BME280;66373;52.334;4.806;2023-05-29T07:16:19;102628.19;;;21.07;41.68
77263;BME280;66373;52.334;4.806;2023-05-29T07:18:46;102625.59;;;21.07;42.24
77263;BME280;66373;52.334;4.806;2023-05-29T07:21:16;102643.91;;;21.09;42.21
77263;BME280;66373;52.334;4.806;2023-05-29T07:23:43;102632.56;;;21.08;41.82
77263;BME280;66373;52.334;4.806;2023-05-29T07:26:11;102634.31;;;21.09;42.15
77263;BME280;66373;52.334;4.806;2023-05-29T07:28:38;102646.50;;;21.10;41.77
77263;BME280;66373;52.334;4.806;2023-05-29T07:31:06;102592.56;;;20.85;42.00
77263;BME280;66373;52.334;4.806;2023-05-29T07:33:33;102559.56;;;20.62;41.88
77263;BME280;66373;52.334;4.806;2023-05-29T07:36:00;102646.50;;;21.13;41.97
77263;BME280;66373;52.334;4.806;2023-05-29T07:38:29;102596.03;;;20.90;42.04
77263;BME280;66373;52.334;4.806;2023-05-29T07:40:56;102642.13;;;21.15;41.92
77263;BME280;66373;52.334;4.806;2023-05-29T07:43:31;102636.00;;;21.18;41.65
77263;BME280;66373;52.334;4.806;2023-05-29T07:46:03;102639.47;;;21.20;41.73
77263;BME280;66373;52.334;4.806;2023-05-29T07:48:30;102615.09;;;21.10;41.75
77263;BME280;66373;52.334;4.806;2023-05-29T07:50:58;102638.63;;;21.22;41.81
77263;BME280;66373;52.334;4.806;2023-05-29T07:53:30;102629.03;;;21.23;41.81
77263;BME280;66373;52.334;4.806;2023-05-29T07:55:58;102635.13;;;21.23;41.98
77263;BME280;66373;52.334;4.806;2023-05-29T07:58:26;102629.91;;;21.19;41.65
77263;BME280;66373;52.334;4.806;2023-05-29T08:00:54;102642.97;;;21.26;41.85
77263;BME280;66373;52.334;4.806;2023-05-29T08:03:23;102643.84;;;21.27;41.82
77263;BME280;66373;52.334;4.806;2023-05-29T08:06:19;102639.47;;;21.27;41.49
77263;BME280;66373;52.334;4.806;2023-05-29T08:08:47;102620.28;;;21.19;41.99
77263;BME280;66373;52.334;4.806;2023-05-29T08:11:15;102615.97;;;21.09;41.65
77263;BME280;66373;52.334;4.806;2023-05-29T08:13:42;102635.13;;;21.26;41.78
77263;BME280;66373;52.334;4.806;2023-05-29T08:16:10;102646.47;;;21.27;41.76
77263;BME280;66373;52.334;4.806;2023-05-29T08:18:39;102629.91;;;21.20;41.54
77263;BME280;66373;52.334;4.806;2023-05-29T08:21:06;102620.31;;;21.16;41.75
77263;BME280;66373;52.334;4.806;2023-05-29T08:23:35;102605.53;;;21.06;41.65
77263;BME280;66373;52.334;4.806;2023-05-29T08:26:03;102597.75;;;21.00;41.86
77263;BME280;66373;52.334;4.806;2023-05-29T08:28:30;102656.00;;;21.36;41.73
77263;BME280;66373;52.334;4.806;2023-05-29T08:30:57;102637.66;;;21.34;41.61
77263;BME280;66373;52.334;4.806;2023-05-29T08:33:24;102624.66;;;21.25;41.57
77263;BME280;66373;52.334;4.806;2023-05-29T08:35:51;102650.72;;;21.39;41.38
77263;BME280;66373;52.334;4.806;2023-05-29T08:38:19;102650.72;;;21.40;41.33
77263;BME280;66373;52.334;4.806;2023-05-29T08:40:47;102658.56;;;21.42;41.48
77263;BME280;66373;52.334;4.806;2023-05-29T08:43:19;102653.34;;;21.42;41.28
77263;BME280;66373;52.334;4.806;2023-05-29T08:45:50;102649.84;;;21.41;41.34
77263;BME280;66373;52.334;4.806;2023-05-29T08:48:22;102650.69;;;21.45;41.36
77263;BME280;66373;52.334;4.806;2023-05-29T08:50:52;102653.31;;;21.45;41.58
77263;BME280;66373;52.334;4.806;2023-05-29T08:53:20;102655.06;;;21.46;41.21
77263;BME280;66373;52.334;4.806;2023-05-29T08:55:48;102655.06;;;21.46;41.45
77263;BME280;66373;52.334;4.806;2023-05-29T08:58:20;102656.81;;;21.47;41.26
77263;BME280;66373;52.334;4.806;2023-05-29T09:00:48;102648.97;;;21.42;41.46
77263;BME280;66373;52.334;4.806;2023-05-29T09:03:16;102656.81;;;21.47;41.44
77263;BME280;66373;52.334;4.806;2023-05-29T09:05:46;102649.81;;;21.49;41.14
77263;BME280;66373;52.334;4.806;2023-05-29T09:08:14;102657.66;;;21.47;41.57
77263;BME280;66373;52.334;4.806;2023-05-29T09:10:42;102648.06;;;21.49;41.43
77263;BME280;66373;52.334;4.806;2023-05-29T09:13:10;102572.44;;;21.02;41.59
77263;BME280;66373;52.334;4.806;2023-05-29T09:15:40;102665.47;;;21.55;41.46
77263;BME280;66373;52.334;4.806;2023-05-29T09:18:09;102610.69;;;21.27;41.17
77263;BME280;66373;52.334;4.806;2023-05-29T09:20:36;102652.34;;;21.58;41.35
77263;BME280;66373;52.334;4.806;2023-05-29T09:23:05;102651.47;;;21.59;41.24
77263;BME280;66373;52.334;4.806;2023-05-29T09:25:34;102654.94;;;21.61;41.04
77263;BME280;66373;52.334;4.806;2023-05-29T09:28:04;102647.94;;;21.63;41.09
77263;BME280;66373;52.334;4.806;2023-05-29T09:30:36;102655.78;;;21.66;41.21
77263;BME280;66373;52.334;4.806;2023-05-29T09:33:06;102631.44;;;21.53;41.19
77263;BME280;66373;52.334;4.806;2023-05-29T09:35:34;102664.50;;;21.66;40.84
77263;BME280;66373;52.334;4.806;2023-05-29T09:38:03;102657.50;;;21.72;41.25
77263;BME280;66373;52.334;4.806;2023-05-29T09:40:31;102649.63;;;21.70;40.95
77263;BME280;66373;52.334;4.806;2023-05-29T09:43:02;102654.84;;;21.76;41.10
77263;BME280;66373;52.334;4.806;2023-05-29T09:45:37;102660.06;;;21.79;40.80
77263;BME280;66373;52.334;4.806;2023-05-29T09:48:08;102653.88;;;21.83;40.88
77263;BME280;66373;52.334;4.806;2023-05-29T09:50:37;102630.44;;;21.70;40.91
77263;BME280;66373;52.334;4.806;2023-05-29T09:53:16;102645.25;;;21.74;40.90
77263;BME280;66373;52.334;4.806;2023-05-29T09:55:45;102659.13;;;21.85;40.95
77263;BME280;66373;52.334;4.806;2023-05-29T09:58:13;102652.06;;;21.91;41.02
77263;BME280;66373;52.334;4.806;2023-05-29T10:00:42;102605.97;;;21.72;41.03
77263;BME280;66373;52.334;4.806;2023-05-29T10:03:11;102645.91;;;21.98;40.73
77263;BME280;66373;52.334;4.806;2023-05-29T10:05:39;102640.66;;;22.00;40.62
77263;BME280;66373;52.334;4.806;2023-05-29T10:08:09;102648.53;;;22.03;40.64
77263;BME280;66373;52.334;4.806;2023-05-29T10:10:40;102640.63;;;22.08;40.56
77263;BME280;66373;52.334;4.806;2023-05-29T10:13:11;102624.94;;;22.02;40.56
77263;BME280;66373;52.334;4.806;2023-05-29T10:15:40;102544.16;;;21.53;40.54
77263;BME280;66373;52.334;4.806;2023-05-29T10:18:14;102642.28;;;22.15;40.48
77263;BME280;66373;52.334;4.806;2023-05-29T10:20:47;102635.31;;;22.11;40.31
77263;BME280;66373;52.334;4.806;2023-05-29T10:23:20;102612.69;;;22.07;40.34
77263;BME280;66373;52.334;4.806;2023-05-29T10:25:51;102639.63;;;22.19;40.63
77263;BME280;66373;52.334;4.806;2023-05-29T10:28:19;102629.97;;;22.23;40.62
77263;BME280;66373;52.334;4.806;2023-05-29T10:30:51;102625.63;;;22.20;40.50
77263;BME280;66373;52.334;4.806;2023-05-29T10:33:36;102648.28;;;22.27;40.53
77263;BME280;66373;52.334;4.806;2023-05-29T10:36:09;102647.38;;;22.30;40.25
77263;BME280;66373;52.334;4.806;2023-05-29T10:38:41;102645.69;;;22.26;40.42
77263;BME280;66373;52.334;4.806;2023-05-29T10:41:30;102645.63;;;22.32;40.23
77263;BME280;66373;52.334;4.806;2023-05-29T10:44:00;102651.72;;;22.34;40.35
77263;BME280;66373;52.334;4.806;2023-05-29T10:47:01;102638.53;;;22.37;40.25
77263;BME280;66373;52.334;4.806;2023-05-29T10:49:31;102631.53;;;22.39;40.50
77263;BME280;66373;52.334;4.806;2023-05-29T10:51:58;102608.97;;;22.26;40.35
77263;BME280;66373;52.334;4.806;2023-05-29T10:54:27;102631.50;;;22.42;40.33
77263;BME280;66373;52.334;4.806;2023-05-29T10:56:56;102630.59;;;22.46;40.32
77263;BME280;66373;52.334;4.806;2023-05-29T10:59:25;102584.56;;;22.21;40.18
77263;BME280;66373;52.334;4.806;2023-05-29T11:01:54;102629.66;;;22.50;40.13
77263;BME280;66373;52.334;4.806;2023-05-29T11:04:28;102581.13;;;22.16;40.38
77263;BME280;66373;52.334;4.806;2023-05-29T11:06:59;102642.75;;;22.53;40.22
77263;BME280;66373;52.334;4.806;2023-05-29T11:09:31;102631.38;;;22.54;40.21
77263;BME280;66373;52.334;4.806;2023-05-29T11:12:14;102601.84;;;22.37;40.13
77263;BME280;66373;52.334;4.806;2023-05-29T11:14:54;102628.72;;;22.57;40.17
77263;BME280;66373;52.334;4.806;2023-05-29T11:17:32;102627.81;;;22.60;39.88
77263;BME280;66373;52.334;4.806;2023-05-29T11:20:02;102576.63;;;22.27;39.81
77263;BME280;66373;52.334;4.806;2023-05-29T11:22:49;102633.00;;;22.64;39.95
77263;BME280;66373;52.334;4.806;2023-05-29T11:25:22;102636.47;;;22.66;39.92
77263;BME280;66373;52.334;4.806;2023-05-29T11:27:50;102619.03;;;22.62;40.19
77263;BME280;66373;52.334;4.806;2023-05-29T11:30:18;102627.69;;;22.71;39.82
77263;BME280;66373;52.334;4.806;2023-05-29T11:32:46;102599.94;;;22.51;39.78
77263;BME280;66373;52.334;4.806;2023-05-29T11:35:13;102634.63;;;22.75;39.87
77263;BME280;66373;52.334;4.806;2023-05-29T11:37:43;102628.50;;;22.76;39.79
77263;BME280;66373;52.334;4.806;2023-05-29T11:40:12;102629.38;;;22.78;39.92
77263;BME280;66373;52.334;4.806;2023-05-29T11:42:42;102641.59;;;22.76;39.89
77263;BME280;66373;52.334;4.806;2023-05-29T11:45:14;102634.56;;;22.82;39.73
77263;BME280;66373;52.334;4.806;2023-05-29T11:47:55;102641.53;;;22.85;39.79
77263;BME280;66373;52.334;4.806;2023-05-29T11:50:23;102599.91;;;22.54;40.09
77263;BME280;66373;52.334;4.806;2023-05-29T11:52:53;102636.28;;;22.85;39.79
77263;BME280;66373;52.334;4.806;2023-05-29T11:55:21;102638.03;;;22.86;39.73
77263;BME280;66373;52.334;4.806;2023-05-29T11:57:50;102650.22;;;22.87;39.76
77263;BME280;66373;52.334;4.806;2023-05-29T12:00:19;102637.09;;;22.88;39.80
77263;BME280;66373;52.334;4.806;2023-05-29T12:02:48;102637.97;;;22.87;39.73
77263;BME280;66373;52.334;4.806;2023-05-29T12:05:17;102638.94;;;22.83;39.83
77263;BME280;66373;52.334;4.806;2023-05-29T12:07:49;102631.13;;;22.74;39.73
77263;BME280;66373;52.334;4.806;2023-05-29T12:10:19;102631.03;;;22.85;39.86
77263;BME280;66373;52.334;4.806;2023-05-29T12:12:51;102621.50;;;22.75;39.65
77263;BME280;66373;52.334;4.806;2023-05-29T12:15:19;102647.56;;;22.91;39.65
77263;BME280;66373;52.334;4.806;2023-05-29T12:17:48;102651.91;;;22.94;39.69
77263;BME280;66373;52.334;4.806;2023-05-29T12:20:16;102559.81;;;22.43;39.49
77263;BME280;66373;52.334;4.806;2023-05-29T12:22:44;102630.16;;;22.86;39.61
77263;BME280;66373;52.334;4.806;2023-05-29T12:25:12;102611.81;;;22.83;39.59
77263;BME280;66373;52.334;4.806;2023-05-29T12:27:44;102640.44;;;23.01;39.71
77263;BME280;66373;52.334;4.806;2023-05-29T12:30:13;102631.66;;;23.04;39.51
77263;BME280;66373;52.334;4.806;2023-05-29T12:32:42;102631.63;;;23.07;39.57
77263;BME280;66373;52.334;4.806;2023-05-29T12:35:15;102607.34;;;22.89;39.50
77263;BME280;66373;52.334;4.806;2023-05-29T12:37:44;102632.44;;;23.10;39.47
77263;BME280;66373;52.334;4.806;2023-05-29T12:40:16;102637.63;;;23.13;39.43
77263;BME280;66373;52.334;4.806;2023-05-29T12:42:45;102635.84;;;23.15;39.20
77263;BME280;66373;52.334;4.806;2023-05-29T12:45:17;102620.97;;;23.16;39.32
77263;BME280;66373;52.334;4.806;2023-05-29T12:47:51;102624.44;;;23.18;39.30
77263;BME280;66373;52.334;4.806;2023-05-29T12:50:23;102609.66;;;23.12;39.22
77263;BME280;66373;52.334;4.806;2023-05-29T12:52:57;102621.75;;;23.22;39.25
77263;BME280;66373;52.334;4.806;2023-05-29T12:55:26;102633.06;;;23.27;39.15
77263;BME280;66373;52.334;4.806;2023-05-29T12:57:55;102623.53;;;23.20;39.08
77263;BME280;66373;52.334;4.806;2023-05-29T13:00:23;102629.50;;;23.31;39.10
77263;BME280;66373;52.334;4.806;2023-05-29T13:02:50;102623.41;;;23.29;39.16